createdAt,value
2022-12-17T00:00:07.344Z,-2.30
2022-12-17T00:02:53.748Z,-2.30
2022-12-17T00:05:39.537Z,-2.40
2022-12-17T00:08:25.505Z,-2.50
2022-12-17T00:11:11.300Z,-2.50
2022-12-17T00:13:57.193Z,-2.50
2022-12-17T00:16:43.153Z,-2.50
2022-12-17T00:19:28.884Z,-2.50
2022-12-17T00:22:14.774Z,-2.40
2022-12-17T00:25:00.774Z,-2.40
2022-12-17T00:27:46.622Z,-2.40
2022-12-17T00:30:32.352Z,-2.50
2022-12-17T00:33:18.329Z,-2.50
2022-12-17T00:36:09.797Z,-2.50
2022-12-17T00:38:55.712Z,-2.50
2022-12-17T00:41:42.682Z,-2.50
2022-12-17T00:44:29.391Z,-2.60
2022-12-17T00:47:15.344Z,-2.50
2022-12-17T00:50:03.644Z,-2.60
2022-12-17T00:52:49.334Z,-2.50
2022-12-17T00:55:35.234Z,-2.60
2022-12-17T00:58:21.442Z,-2.70
2022-12-17T01:01:07.197Z,-2.60
2022-12-17T01:03:53.060Z,-2.70
2022-12-17T01:06:39.485Z,-2.60
2022-12-17T01:09:25.267Z,-2.60
2022-12-17T01:12:11.324Z,-2.60
2022-12-17T01:14:57.968Z,-2.50
2022-12-17T01:17:43.792Z,-2.50
2022-12-17T01:20:29.368Z,-2.60
2022-12-17T01:23:15.029Z,-2.60
2022-12-17T01:26:00.953Z,-2.60
2022-12-17T01:28:46.669Z,-2.70
2022-12-17T01:31:35.462Z,-2.60
2022-12-17T01:34:21.383Z,-2.60
2022-12-17T01:37:07.000Z,-2.50
2022-12-17T01:39:52.680Z,-2.50
2022-12-17T01:42:38.465Z,-2.60
2022-12-17T01:45:28.766Z,-2.70
2022-12-17T01:48:19.577Z,-2.60
2022-12-17T01:51:07.989Z,-2.60
2022-12-17T01:53:56.769Z,-2.60
2022-12-17T01:56:43.924Z,-2.60
2022-12-17T01:59:31.514Z,-2.70
2022-12-17T02:02:17.417Z,-2.80
2022-12-17T02:05:03.126Z,-2.80
2022-12-17T02:08:08.989Z,-2.80
2022-12-17T02:11:08.419Z,-2.80
2022-12-17T02:13:58.455Z,-2.80
2022-12-17T02:16:49.462Z,-2.80
2022-12-17T02:19:49.571Z,-2.80
2022-12-17T02:22:45.365Z,-2.80
2022-12-17T02:25:37.749Z,-2.90
2022-12-17T02:28:23.378Z,-2.90
2022-12-17T02:31:09.868Z,-2.90
2022-12-17T02:33:55.519Z,-3.00
2022-12-17T02:36:41.177Z,-3.00
2022-12-17T02:39:26.876Z,-3.00
2022-12-17T02:42:12.970Z,-3.00
2022-12-17T02:44:59.246Z,-3.10
2022-12-17T02:47:45.971Z,-3.10
2022-12-17T02:50:32.032Z,-3.10
2022-12-17T02:53:18.391Z,-3.20
2022-12-17T02:56:04.270Z,-3.30
2022-12-17T02:58:52.541Z,-3.30
2022-12-17T03:01:38.289Z,-3.20
2022-12-17T03:04:24.188Z,-3.30
2022-12-17T03:07:10.018Z,-3.30
2022-12-17T03:09:56.026Z,-3.20
2022-12-17T03:12:42.604Z,-3.20
2022-12-17T03:15:28.640Z,-3.20
2022-12-17T03:18:14.689Z,-3.20
2022-12-17T03:21:00.421Z,-3.20
2022-12-17T03:23:46.373Z,-3.20
2022-12-17T03:26:32.414Z,-3.20
2022-12-17T03:29:18.186Z,-3.20
2022-12-17T03:32:06.863Z,-3.20
2022-12-17T03:34:52.951Z,-3.30
2022-12-17T03:37:38.616Z,-3.20
2022-12-17T03:40:24.985Z,-3.20
2022-12-17T03:43:10.971Z,-3.10
2022-12-17T03:45:56.930Z,-3.20
2022-12-17T03:48:42.789Z,-3.20
2022-12-17T03:51:28.859Z,-3.30
2022-12-17T03:54:14.717Z,-3.20
2022-12-17T03:57:00.821Z,-3.20
2022-12-17T03:59:46.807Z,-3.20
2022-12-17T04:02:32.974Z,-3.30
2022-12-17T04:05:20.486Z,-3.20
2022-12-17T04:08:06.388Z,-3.10
2022-12-17T04:10:52.070Z,-3.00
2022-12-17T04:13:57.879Z,-3.10
2022-12-17T04:16:43.582Z,-3.20
2022-12-17T04:19:29.585Z,-3.20
2022-12-17T04:22:15.185Z,-3.20
2022-12-17T04:25:01.029Z,-3.20
2022-12-17T04:27:47.077Z,-3.20
2022-12-17T04:30:32.624Z,-3.30
2022-12-17T04:33:18.618Z,-3.30
2022-12-17T04:36:04.643Z,-3.30
2022-12-17T04:38:50.478Z,-3.30
2022-12-17T04:41:53.234Z,-3.40
2022-12-17T04:44:38.688Z,-3.50
2022-12-17T04:47:24.589Z,-3.40
2022-12-17T04:50:10.617Z,-3.40
2022-12-17T04:52:56.452Z,-3.50
2022-12-17T04:55:42.179Z,-3.40
2022-12-17T04:58:28.213Z,-3.40
2022-12-17T05:01:14.047Z,-3.40
2022-12-17T05:03:59.913Z,-3.50
2022-12-17T05:06:45.650Z,-3.40
2022-12-17T05:09:31.517Z,-3.50
2022-12-17T05:12:17.367Z,-3.50
2022-12-17T05:15:02.833Z,-3.50
2022-12-17T05:17:48.482Z,-3.50
2022-12-17T05:20:34.434Z,-3.50
2022-12-17T05:23:24.279Z,-3.60
2022-12-17T05:26:24.185Z,-3.70
2022-12-17T05:29:15.582Z,-3.60
2022-12-17T05:32:01.645Z,-3.60
2022-12-17T05:34:47.712Z,-3.60
2022-12-17T05:37:33.634Z,-3.80
2022-12-17T05:40:19.485Z,-3.90
2022-12-17T05:43:18.580Z,-3.90
2022-12-17T05:46:05.346Z,-3.90
2022-12-17T05:48:51.548Z,-3.90
2022-12-17T05:51:39.019Z,-3.90
2022-12-17T05:54:25.435Z,-4.00
2022-12-17T05:57:11.488Z,-3.90
2022-12-17T05:59:57.492Z,-4.10
2022-12-17T06:02:43.448Z,-4.10
2022-12-17T06:05:29.063Z,-4.10
2022-12-17T06:08:24.697Z,-4.20
2022-12-17T06:11:10.453Z,-4.20
2022-12-17T06:13:56.361Z,-4.20
2022-12-17T06:16:42.126Z,-4.20
2022-12-17T06:19:27.908Z,-4.10
2022-12-17T06:22:13.831Z,-4.10
2022-12-17T06:24:59.953Z,-4.00
2022-12-17T06:27:45.776Z,-4.10
2022-12-17T06:30:31.793Z,-4.30
2022-12-17T06:33:28.738Z,-4.40
2022-12-17T06:36:21.647Z,-4.30
2022-12-17T06:39:08.775Z,-4.40
2022-12-17T06:42:02.208Z,-4.30
2022-12-17T06:44:49.632Z,-4.40
2022-12-17T06:47:35.675Z,-4.40
2022-12-17T06:50:21.703Z,-4.50
2022-12-17T06:53:15.843Z,-4.60
2022-12-17T06:56:01.818Z,-4.70
2022-12-17T06:58:48.001Z,-4.80
2022-12-17T07:01:33.914Z,-4.80
2022-12-17T07:04:19.709Z,-4.80
2022-12-17T07:07:05.536Z,-4.90
2022-12-17T07:09:51.405Z,-4.90
2022-12-17T07:12:38.255Z,-4.80
2022-12-17T07:15:24.645Z,-4.80
2022-12-17T07:18:14.633Z,-4.90
2022-12-17T07:21:00.425Z,-5.10
2022-12-17T07:23:46.557Z,-5.20
2022-12-17T07:26:37.103Z,-5.20
2022-12-17T07:29:22.661Z,-5.20
2022-12-17T07:32:08.793Z,-5.20
2022-12-17T07:34:54.563Z,-5.10
2022-12-17T07:37:40.477Z,-5.00
2022-12-17T07:40:27.154Z,-5.00
2022-12-17T07:43:12.976Z,-5.00
2022-12-17T07:45:58.977Z,-4.90
2022-12-17T07:48:44.682Z,-4.80
2022-12-17T07:51:30.661Z,-4.80
2022-12-17T07:54:16.633Z,-4.80
2022-12-17T07:57:02.411Z,-4.80
2022-12-17T07:59:48.476Z,-4.70
2022-12-17T08:02:34.438Z,-4.60
2022-12-17T08:05:20.135Z,-4.70
2022-12-17T08:08:06.089Z,-4.80
2022-12-17T08:10:53.573Z,-5.00
2022-12-17T08:13:40.156Z,-4.90
2022-12-17T08:16:26.667Z,-4.90
2022-12-17T08:19:12.218Z,-4.90
2022-12-17T08:21:57.979Z,-4.60
2022-12-17T08:24:43.805Z,-4.50
2022-12-17T08:27:46.418Z,-4.30
2022-12-17T08:30:32.179Z,-4.50
2022-12-17T08:33:24.541Z,-4.50
2022-12-17T08:36:14.417Z,-4.60
2022-12-17T08:39:00.097Z,-4.40
2022-12-17T08:41:51.122Z,-4.20
2022-12-17T08:44:39.894Z,-4.30
2022-12-17T08:47:25.791Z,-4.40
2022-12-17T08:50:11.630Z,-4.30
2022-12-17T08:52:57.249Z,-4.30
2022-12-17T08:55:42.916Z,-4.00
2022-12-17T08:58:28.447Z,-4.00
2022-12-17T09:01:17.659Z,-3.90
2022-12-17T09:04:06.531Z,-3.80
2022-12-17T09:06:52.464Z,-4.00
2022-12-17T09:09:38.200Z,-3.90
2022-12-17T09:12:24.118Z,-3.60
2022-12-17T09:15:09.810Z,-3.60
2022-12-17T09:17:55.737Z,-3.30
2022-12-17T09:20:41.622Z,-3.10
2022-12-17T09:23:27.312Z,-3.10
2022-12-17T09:26:14.133Z,-2.80
2022-12-17T09:29:00.178Z,-3.20
2022-12-17T09:31:45.782Z,-3.40
2022-12-17T09:34:31.532Z,-3.20
2022-12-17T09:37:17.446Z,-3.20
2022-12-17T09:40:03.516Z,-3.20
2022-12-17T09:43:00.414Z,-3.20
2022-12-17T09:45:52.384Z,-3.30
2022-12-17T09:48:42.675Z,-3.30
2022-12-17T09:51:42.516Z,-3.30
2022-12-17T09:54:40.526Z,-3.40
2022-12-17T09:57:29.090Z,-3.10
2022-12-17T10:00:14.862Z,-3.10
2022-12-17T10:03:00.630Z,-3.00
2022-12-17T10:05:48.494Z,-2.90
2022-12-17T10:08:37.029Z,-2.90
2022-12-17T10:11:42.114Z,-3.00
2022-12-17T10:14:37.216Z,-3.00
2022-12-17T10:17:23.034Z,-2.90
2022-12-17T10:20:10.978Z,-2.90
2022-12-17T10:23:04.346Z,-2.90
2022-12-17T10:25:50.207Z,-2.80
2022-12-17T10:28:41.465Z,-2.30
2022-12-17T10:31:38.336Z,-1.90
2022-12-17T10:34:39.042Z,-1.90
2022-12-17T10:37:24.741Z,-1.90
2022-12-17T10:40:15.440Z,-1.60
2022-12-17T10:43:01.253Z,-1.20
2022-12-17T10:45:51.442Z,-1.00
2022-12-17T10:48:49.593Z,-1.40
2022-12-17T10:51:54.785Z,-1.50
2022-12-17T10:54:49.406Z,-1.40
2022-12-17T10:57:44.848Z,-1.30
2022-12-17T11:00:50.332Z,-1.20
2022-12-17T11:03:46.525Z,-1.40
2022-12-17T11:06:42.078Z,-1.50
2022-12-17T11:09:42.660Z,-1.50
2022-12-17T11:12:30.732Z,-1.50
2022-12-17T11:15:19.756Z,-1.50
2022-12-17T11:18:11.142Z,-1.30
2022-12-17T11:21:28.658Z,-0.80
2022-12-17T11:24:19.134Z,-0.70
2022-12-17T11:27:10.240Z,-0.60
2022-12-17T11:29:56.407Z,-0.40
2022-12-17T11:33:19.054Z,-0.30
2022-12-17T11:36:13.473Z,-0.20
2022-12-17T11:39:22.460Z,-0.50
2022-12-17T11:42:27.005Z,-0.40
2022-12-17T11:45:23.819Z,-0.20
2022-12-17T11:48:15.432Z,-0.10
2022-12-17T11:51:20.885Z,-0.20
2022-12-17T11:54:26.500Z,-0.10
2022-12-17T11:57:31.261Z,0.00
2022-12-17T12:00:35.992Z,0.10
2022-12-17T12:03:54.138Z,0.30
2022-12-17T12:07:22.022Z,0.40
2022-12-17T12:10:21.869Z,0.50
2022-12-17T12:13:43.110Z,0.70
2022-12-17T12:16:49.551Z,0.80
2022-12-17T12:19:49.299Z,0.80
2022-12-17T12:22:40.468Z,0.50
2022-12-17T12:25:44.664Z,0.50
2022-12-17T12:28:46.835Z,0.50
2022-12-17T12:31:50.928Z,0.60
2022-12-17T12:34:41.587Z,0.50
2022-12-17T12:37:31.595Z,0.40
2022-12-17T12:40:32.490Z,0.20
2022-12-17T12:43:45.681Z,0.30
2022-12-17T12:46:52.604Z,0.30
2022-12-17T12:49:48.870Z,0.30
2022-12-17T12:52:40.230Z,0.20
2022-12-17T12:55:26.009Z,0.10
2022-12-17T12:58:21.128Z,0.10
2022-12-17T13:01:07.179Z,0.20
2022-12-17T13:04:02.184Z,0.30
2022-12-17T13:06:45.665Z,0.10
2022-12-17T13:09:15.874Z,-0.30
2022-12-17T13:11:47.012Z,-0.40
2022-12-17T13:14:23.693Z,-0.30
2022-12-17T13:16:53.809Z,-0.30
2022-12-17T13:19:21.291Z,-0.30
2022-12-17T13:21:48.567Z,-0.30
2022-12-17T13:24:26.017Z,-0.30
2022-12-17T13:26:53.293Z,-0.30
2022-12-17T13:29:29.797Z,-0.30
2022-12-17T13:32:04.761Z,-0.30
2022-12-17T13:35:10.331Z,-0.40
2022-12-17T13:37:43.746Z,-0.40
2022-12-17T13:40:38.839Z,-0.40
2022-12-17T13:43:13.477Z,-0.30
2022-12-17T13:45:40.730Z,-0.30
2022-12-17T13:48:19.914Z,-0.40
2022-12-17T13:50:58.037Z,-0.40
2022-12-17T13:53:25.529Z,-0.60
2022-12-17T13:55:57.017Z,-0.60
2022-12-17T13:58:34.843Z,-0.70
2022-12-17T14:01:08.909Z,-0.70
2022-12-17T14:04:04.517Z,-0.90
2022-12-17T14:06:25.723Z,-1.00
2022-12-17T14:08:54.057Z,-1.00
2022-12-17T14:11:39.844Z,-1.10
2022-12-17T14:14:31.341Z,-1.20
2022-12-17T14:16:58.872Z,-1.30
2022-12-17T14:19:26.121Z,-1.30
2022-12-17T14:21:53.361Z,-1.40
2022-12-17T14:24:23.146Z,-1.40
2022-12-17T14:26:51.405Z,-1.40
2022-12-17T14:29:23.840Z,-1.30
2022-12-17T14:32:01.456Z,-1.50
2022-12-17T14:34:29.890Z,-1.50
2022-12-17T14:36:58.719Z,-1.50
2022-12-17T14:39:28.588Z,-1.60
2022-12-17T14:42:25.306Z,-1.50
2022-12-17T14:44:54.537Z,-1.50
2022-12-17T14:47:25.597Z,-1.60
2022-12-17T14:49:58.424Z,-1.70
2022-12-17T14:52:39.107Z,-1.80
2022-12-17T14:55:22.432Z,-1.80
2022-12-17T14:57:50.434Z,-1.80
2022-12-17T15:00:18.520Z,-1.80
2022-12-17T15:02:52.977Z,-1.90
2022-12-17T15:05:20.398Z,-2.00
2022-12-17T15:07:47.573Z,-2.00
2022-12-17T15:10:18.866Z,-2.10
2022-12-17T15:12:46.420Z,-2.10
2022-12-17T15:15:14.461Z,-2.10
2022-12-17T15:17:41.787Z,-2.20
2022-12-17T15:20:16.836Z,-2.20
2022-12-17T15:22:44.002Z,-2.20
2022-12-17T15:25:16.567Z,-2.30
2022-12-17T15:27:44.033Z,-2.30
2022-12-17T15:30:15.722Z,-2.40
2022-12-17T15:32:43.102Z,-2.60
2022-12-17T15:35:11.289Z,-2.70
2022-12-17T15:37:38.595Z,-2.80
2022-12-17T15:40:06.634Z,-2.80
2022-12-17T15:42:52.283Z,-2.90
2022-12-17T15:45:19.489Z,-3.10
2022-12-17T15:47:46.767Z,-3.30
2022-12-17T15:50:13.940Z,-3.20
2022-12-17T15:52:41.131Z,-3.20
2022-12-17T15:55:09.513Z,-3.10
2022-12-17T15:57:36.675Z,-3.10
2022-12-17T16:00:04.542Z,-3.10
2022-12-17T16:02:32.718Z,-3.10
2022-12-17T16:05:00.031Z,-3.10
2022-12-17T16:07:27.233Z,-3.10
2022-12-17T16:09:54.400Z,-3.20
2022-12-17T16:12:22.001Z,-3.40
2022-12-17T16:14:49.166Z,-3.50
2022-12-17T16:17:16.363Z,-3.60
2022-12-17T16:19:43.546Z,-3.60
2022-12-17T16:22:10.753Z,-3.50
2022-12-17T16:24:37.994Z,-3.60
2022-12-17T16:27:05.235Z,-3.60
2022-12-17T16:29:32.427Z,-3.80
2022-12-17T16:32:00.124Z,-3.80
2022-12-17T16:34:27.322Z,-3.80
2022-12-17T16:36:54.514Z,-3.80
2022-12-17T16:39:21.870Z,-3.80
2022-12-17T16:41:49.177Z,-3.80
2022-12-17T16:44:16.366Z,-3.70
2022-12-17T16:46:43.710Z,-3.70
2022-12-17T16:49:11.873Z,-3.60
2022-12-17T16:51:39.390Z,-3.40
2022-12-17T16:54:13.221Z,-3.40
2022-12-17T16:56:40.875Z,-3.30
2022-12-17T16:59:08.464Z,-3.20
2022-12-17T17:01:36.032Z,-3.10
2022-12-17T17:04:04.441Z,-3.00
2022-12-17T17:06:33.762Z,-3.00
2022-12-17T17:09:04.182Z,-3.00
2022-12-17T17:11:31.578Z,-2.90
2022-12-17T17:13:58.786Z,-2.90
2022-12-17T17:16:26.101Z,-2.80
2022-12-17T17:18:53.424Z,-2.80
2022-12-17T17:21:20.624Z,-2.70
2022-12-17T17:23:48.589Z,-2.60
2022-12-17T17:26:16.056Z,-2.60
2022-12-17T17:28:44.951Z,-2.60
2022-12-17T17:31:13.232Z,-2.60
2022-12-17T17:33:46.621Z,-2.50
2022-12-17T17:36:14.587Z,-2.40
2022-12-17T17:38:41.876Z,-2.40
2022-12-17T17:41:10.869Z,-2.50
2022-12-17T17:43:38.134Z,-2.50
2022-12-17T17:46:06.273Z,-2.50
2022-12-17T17:48:33.943Z,-2.40
2022-12-17T17:51:02.760Z,-2.40
2022-12-17T17:53:30.016Z,-2.50
2022-12-17T17:56:03.570Z,-2.60
2022-12-17T17:58:30.800Z,-2.60
2022-12-17T18:00:58.022Z,-2.60
2022-12-17T18:03:25.365Z,-2.80
2022-12-17T18:05:52.698Z,-2.90
2022-12-17T18:08:19.886Z,-2.90
2022-12-17T18:10:59.840Z,-2.90
2022-12-17T18:13:45.866Z,-3.00
2022-12-17T18:16:13.283Z,-3.10
2022-12-17T18:18:40.788Z,-3.10
2022-12-17T18:21:11.150Z,-3.10
2022-12-17T18:23:38.491Z,-3.20
2022-12-17T18:26:16.397Z,-3.20
2022-12-17T18:28:44.008Z,-3.00
2022-12-17T18:31:19.442Z,-2.90
2022-12-17T18:33:48.750Z,-3.00
2022-12-17T18:36:18.387Z,-2.90
2022-12-17T18:38:45.781Z,-2.90
2022-12-17T18:41:33.347Z,-2.90
2022-12-17T18:44:02.010Z,-3.10
2022-12-17T18:46:29.477Z,-3.00
2022-12-17T18:49:00.884Z,-3.00
2022-12-17T18:51:28.201Z,-2.90
2022-12-17T18:53:59.483Z,-3.00
2022-12-17T18:56:59.523Z,-3.00
2022-12-17T18:59:16.886Z,-2.90
2022-12-17T19:01:44.318Z,-3.10
2022-12-17T19:04:13.948Z,-3.10
2022-12-17T19:06:41.450Z,-3.20
2022-12-17T19:09:14.269Z,-3.20
2022-12-17T19:11:43.694Z,-3.30
2022-12-17T19:14:11.067Z,-3.30
2022-12-17T19:16:38.395Z,-3.30
2022-12-17T19:19:05.640Z,-3.20
2022-12-17T19:21:33.699Z,-3.10
2022-12-17T19:24:05.156Z,-3.00
2022-12-17T19:26:32.421Z,-2.90
2022-12-17T19:28:59.933Z,-2.90
2022-12-17T19:31:28.574Z,-2.80
2022-12-17T19:33:56.594Z,-3.00
2022-12-17T19:36:28.195Z,-3.30
2022-12-17T19:38:57.510Z,-3.40
2022-12-17T19:41:25.041Z,-3.30
2022-12-17T19:43:56.656Z,-3.20
2022-12-17T19:46:24.194Z,-3.10
2022-12-17T19:48:52.139Z,-3.10
2022-12-17T19:51:21.948Z,-3.00
2022-12-17T19:53:49.310Z,-2.90
2022-12-17T19:56:22.419Z,-3.00
2022-12-17T19:58:52.421Z,-2.90
2022-12-17T20:01:27.849Z,-2.90
2022-12-17T20:03:55.414Z,-2.90
2022-12-17T20:06:24.461Z,-2.90
2022-12-17T20:08:51.718Z,-2.90
2022-12-17T20:11:34.675Z,-2.90
2022-12-17T20:14:06.585Z,-3.00
2022-12-17T20:16:38.934Z,-3.10
2022-12-17T20:19:07.785Z,-3.20
2022-12-17T20:21:35.007Z,-3.10
2022-12-17T20:24:02.204Z,-3.10
2022-12-17T20:26:32.284Z,-3.10
2022-12-17T20:28:59.577Z,-3.40
2022-12-17T20:31:27.495Z,-3.50
2022-12-17T20:33:54.890Z,-3.60
2022-12-17T20:36:22.273Z,-3.50
2022-12-17T20:38:49.536Z,-3.40
2022-12-17T20:41:18.818Z,-3.30
2022-12-17T20:43:46.169Z,-3.30
2022-12-17T20:46:13.568Z,-3.30
2022-12-17T20:48:41.822Z,-3.30
2022-12-17T20:51:17.308Z,-3.40
2022-12-17T20:53:44.862Z,-3.40
2022-12-17T20:56:14.801Z,-3.60
2022-12-17T20:58:42.501Z,-3.70
2022-12-17T21:01:15.505Z,-3.80
2022-12-17T21:03:42.995Z,-3.80
2022-12-17T21:06:15.401Z,-3.60
2022-12-17T21:08:49.375Z,-3.60
2022-12-17T21:11:18.442Z,-3.40
2022-12-17T21:13:46.002Z,-3.40
2022-12-17T21:16:14.933Z,-3.40
2022-12-17T21:18:42.458Z,-3.30
2022-12-17T21:21:16.165Z,-3.40
2022-12-17T21:23:43.481Z,-3.50
2022-12-17T21:26:19.827Z,-3.50
2022-12-17T21:28:48.058Z,-3.50
2022-12-17T21:31:19.896Z,-3.40
2022-12-17T21:33:47.812Z,-3.30
2022-12-17T21:36:15.900Z,-3.20
2022-12-17T21:38:43.359Z,-3.30
2022-12-17T21:41:15.669Z,-3.40
2022-12-17T21:43:42.925Z,-3.50
2022-12-17T21:46:10.951Z,-3.50
2022-12-17T21:48:41.846Z,-3.60
2022-12-17T21:51:11.249Z,-3.50
2022-12-17T21:53:42.259Z,-3.60
2022-12-17T21:56:11.678Z,-3.60
2022-12-17T21:58:39.744Z,-3.50
2022-12-17T22:01:19.824Z,-3.30
2022-12-17T22:03:54.120Z,-3.20
2022-12-17T22:06:22.959Z,-3.10
2022-12-17T22:08:52.294Z,-3.00
2022-12-17T22:11:24.852Z,-3.10
2022-12-17T22:14:13.836Z,-3.10
2022-12-17T22:16:47.099Z,-3.20
2022-12-17T22:19:16.388Z,-3.30
2022-12-17T22:21:45.016Z,-3.30
2022-12-17T22:24:16.766Z,-3.40
2022-12-17T22:26:44.249Z,-3.30
2022-12-17T22:29:11.666Z,-3.20
2022-12-17T22:31:57.444Z,-3.20
2022-12-17T22:35:01.374Z,-3.10
2022-12-17T22:40:31.856Z,-3.10
2022-12-17T22:44:20.073Z,-3.00
2022-12-17T22:44:43.671Z,-3.00
2022-12-17T22:45:52.478Z,-2.90
2022-12-17T22:48:22.078Z,-2.80
2022-12-17T22:51:02.858Z,-2.90
2022-12-17T22:53:31.587Z,-2.90
2022-12-17T22:56:12.399Z,-2.80
2022-12-17T22:58:44.147Z,-2.90
2022-12-17T23:01:11.445Z,-3.10
2022-12-17T23:03:39.082Z,-3.10
2022-12-17T23:06:15.144Z,-3.20
2022-12-17T23:08:42.806Z,-3.10
2022-12-17T23:11:20.891Z,-3.00
2022-12-17T23:13:49.524Z,-3.10
2022-12-17T23:16:16.840Z,-3.00
2022-12-17T23:18:44.885Z,-3.10
2022-12-17T23:21:15.696Z,-3.20
2022-12-17T23:23:43.337Z,-3.30
2022-12-17T23:26:14.702Z,-3.30
2022-12-17T23:28:42.037Z,-3.30
2022-12-17T23:31:10.100Z,-3.30
2022-12-17T23:33:37.754Z,-3.30
2022-12-17T23:36:19.171Z,-3.20
2022-12-17T23:38:47.293Z,-3.20
2022-12-17T23:41:22.409Z,-3.30
2022-12-17T23:43:49.841Z,-3.20
2022-12-17T23:46:17.661Z,-3.10
2022-12-17T23:48:45.960Z,-3.20
2022-12-17T23:51:14.447Z,-3.10
2022-12-17T23:53:42.244Z,-3.10
2022-12-17T23:56:15.005Z,-3.10
2022-12-17T23:58:42.726Z,-3.10
